Главная страница
METAR-TAF:

METAR-TAF

Аэропорты :

Табук, Саудовская Аравия

широта: 28-22N, долгота: 036-36E, высота над уровнем моря: 778 м

Текущие метеонаблюдения

Эта сводка был подготовлена 42 минут назад, в 18:00 UTC
Штиль
Температура 19°C
Влажность 18%
Давление 1014 hPa
Видимость 10 км и более
Нет облачности ниже 1500 м, и нет кучево-дождевой облачности

METAR: OETB 281800Z 00000KT CAVOK 19/M06 Q1014 NOSIG

Время: 21:42 (18:42 UTC)

Прогноз

Эта сводка был подготовлена 7 часа и 42 минут назад, в 11:00 UTC
Прогноз действительный с 28-го 12 UTC до 29-го 18 UTC
Ветер 12 Узел от северно-северо-западный
Видимость 10 км и более
Нет облачности ниже 1500 м, и нет кучево-дождевой облачности
изменения
С 28-го 18 UTC до 28-го 20 UTC
Ветер 6 Узел от западный-юго-западный

TAF: OETB 281100Z 2812/2918 34012KT CAVOK BECMG 2818/2820 24006KT

Метеонаблюдения и прогнозы для более 4000 аэропортов (сводки METAR и TAF).

Имеющиеся станции представлены на карте желтыми и красными точками.

Чтобы увидеть название станции, наведите на нее мышь.

Затем щелкните, чтобы увидеть метеонаблюдения и метеопрогнозы.

Управление картой: чтобы увеличить масштаб, щелкните зеленые кнопки с черным крестиком; чтобы уменьшить масштаб, щелкните зеленую кнопку с тире; для просмотра соседних карт щелкайте зеленые стрелки.


METAR-TAF: